Tiempo atmosférico en la estación meteorológica de Valderrobres, Teruel (482 m.)



Fecha
DESCASC
Temp. máxima en grados centígrados (hora)
DESCASC
Temp. mínima en grados centígrados (hora)
DESCASC
Temp. media en grados centígrados
DESCASC
Racha de viento máxima en m/sg (hora)
DESCASC
Velocidad máxima media en intervalos de 10 minutos(hora)
DESCASC
Precipitaciones diarias en mm
DESCASC
Precipitaciones de 00:00 a 06:00 en mm
DESCASC
Precipitaciones de 06:00 a 12:00 en mm
DESCASC
Precipitaciones de 12:00 a 18:00 en mm
DESCASC
Precipitaciones de 18:00 a 24:00 en mm
DESCASC
18-08-2019 35.2 (14:50) 17.9 (07:20) 26.6 10 (23:50) 5.28 (23:59) 1.2 0 0 1.2 0
17-08-2019 33.9 (15:40) 17 (07:30) 25.5 9.72 (23:59) 3.89 (23:59) 0 0 0 0 0
16-08-2019 31.9 (16:00) 13.2 (07:30) 22.5 5.56 (17:00) 3.33 (19:20) 0 0 0 0 0
15-08-2019 31.4 (18:40) 13.1 (00:00) 22.3 7.5 (17:00) 3.89 (16:10) 0 0 0 0 0
14-08-2019 31.3 (19:50) 9 (00:00) 20.1 8.33 (17:00) 4.44 (17:10) 0 0 0 0 0
13-08-2019 26.4 (18:50) 14.4 (00:00) 20.4 8.06 (15:30) 3.89 (17:30) 0 0 0 0 0
12-08-2019 25.8 (16:50) 17.3 (00:00) 21.5 10 (18:10) 5 (13:20) 0 0 0 0 0
11-08-2019 30.8 (19:50) 17.9 (00:00) 24.3 9.44 (16:00) 5 (16:00) 0 0 0 0 0
10-08-2019 32.9 (16:40) 17.3 (00:00) 25.1 8.61 (00:10) 5.28 (00:10) 0 0 0 0 0
09-08-2019 37.8 (16:50) 16.9 (00:00) 27.3 8.61 (23:59) 4.17 (23:59) 0 0 0 0 0
08-08-2019 35.3 (16:40) 17 (00:00) 26.1 9.72 (17:10) 5 (17:00) 0 0 0 0 0
07-08-2019 31.5 (17:30) 20.4 (00:00) 25.9 7.5 (16:00) 3.89 (04:20) 0 0 0 0 0
06-08-2019 35.6 (16:40) 17.5 (00:00) 26.5 7.78 (17:20) 3.89 (17:50) 0 0 0 0 0
05-08-2019 34.9 (15:50) 18.3 (00:00) 26.6 -- (--) -- (--) 0 0 0 0 0
04-08-2019 34.4 (15:20) 16.5 (00:00) 25.5 9.44 (18:00) 5 (17:30) 0 0 0 0 0
03-08-2019 34.4 (15:10) 15.1 (00:00) 24.8 9.72 (16:40) 5.83 (17:00) 1.6 0 0 0 1.6
02-08-2019 33.3 (16:40) 17 (00:00) 25.1 6.39 (17:10) 3.33 (16:50) 0 0 0 0 0
01-08-2019 31.6 (15:20) 15.6 (00:00) 23.6 6.94 (14:20) 3.33 (18:20) 0 0 0 0 0
31-07-2019 28.2 (18:10) 11 (00:00) 19.6 11.11 (14:20) 5.83 (14:10) 0 0 0 0 0
30-07-2019 28.5 (18:10) 17.6 (00:00) 23.1 9.72 (01:40) 5.28 (01:40) 0 0 0 0 0
29-07-2019 33.1 (15:30) 10.8 (00:00) 21.9 8.61 (16:50) 3.89 (17:50) 0 0 0 0 0
28-07-2019 27.8 (19:10) 15.1 (00:00) 21.4 13.06 (09:40) 6.39 (09:40) 0 0 0 0 0
27-07-2019 27.4 (16:50) 16.3 (00:00) 21.8 11.94 (23:00) 6.11 (18:30) 0 0 0 0 0
26-07-2019 28.7 (14:30) 19.4 (00:00) 24.1 11.67 (15:00) 6.11 (14:50) 3.4 0 0 3 0.4
25-07-2019 37 (14:10) 17.5 (00:00) 27.3 11.39 (14:40) 6.11 (15:40) 0 0 0 0 0
24-07-2019 37.5 (14:50) 16.7 (00:00) 27.1 11.11 (18:00) 5.28 (15:40) 0 0 0 0 0
23-07-2019 38.2 (14:50) 14.9 (00:00) 26.6 11.94 (16:50) 5.83 (16:50) 0 0 0 0 0
22-07-2019 36.8 (14:10) 15.8 (00:00) 26.3 11.11 (17:10) 5.83 (17:00) 0 0 0 0 0

Gráficas

Temp. máximas Temp. mínimas Temp. medias Precipitaciones Rachas de viento máximas Velocidades máximas media en intervalos de 10 minutos

Datos horarios

Fecha y hora oficial Temperatura (ºC) Velocidad del viento (km/h) Dirección del viento Racha (km/h) Dirección de racha Precipitación (mm) Presión (hPa) Tendencia (hPa) Humedad (%)
2019-08-20 23:00:00 18.4 0 Calma 3 Este 0 -- -- 88
2019-08-20 22:00:00 18.7 0 Calma 6 Sudoeste 0 -- -- 85
2019-08-20 21:00:00 19.4 2 Sur 6 Sudeste 0 -- -- 80
2019-08-20 20:00:00 20.1 2 Sudeste 6 Sudoeste 0 -- -- 75
2019-08-20 19:00:00 20.2 0 Calma 8 Oeste 0 -- -- 75
2019-08-20 18:00:00 20.3 4 Oeste 8 Oeste 0 -- -- 77
2019-08-20 17:00:00 19 3 Norte 8 Oeste 0 -- -- 85
2019-08-20 16:00:00 18 3 Noroeste 8 Noroeste 0 -- -- 90
2019-08-20 15:00:00 16.9 5 Noroeste 17 Oeste 0.2 -- -- 94
2019-08-20 14:00:00 16.9 8 Oeste 16 Oeste 0 -- -- 95
2019-08-20 13:00:00 16.7 11 Noroeste 17 Oeste 0 -- -- 95
2019-08-20 12:00:00 16.7 6 Noroeste 10 Oeste 1 -- -- 96
2019-08-20 11:00:00 16.7 0 Calma 9 Oeste 0.4 -- -- 95
2019-08-20 10:00:00 16.7 0 Calma 10 Noroeste 0 -- -- 92
2019-08-20 09:00:00 16.6 4 Oeste 12 Noroeste 0 -- -- 90
2019-08-20 08:00:00 16.4 7 Noroeste 21 Oeste 0 -- -- 90
2019-08-20 07:00:00 17.4 9 Noroeste 18 Oeste 0 -- -- 85
2019-08-20 06:00:00 17.9 6 Oeste 15 Noroeste 0 -- -- 81
2019-08-20 05:00:00 18.3 7 Noroeste 14 Noroeste 0 -- -- 79
2019-08-20 04:00:00 18.8 2 Oeste 8 Oeste 0 -- -- 77
2019-08-20 03:00:00 19 3 Oeste 8 Oeste 0 -- -- 74
2019-08-20 02:00:00 20 0 Calma 5 Oeste 0 -- -- 71
2019-08-20 01:00:00 20.3 4 Oeste 13 Oeste 0 -- -- 67
2019-08-20 00:00:00 20.7 6 Oeste 15 Oeste 0 -- -- 72
2019-08-19 23:00:00 21.7 0 Calma 13 Oeste 0 -- -- 80
2019-08-19 22:00:00 23 5 Noroeste 20 Sudeste 0 -- -- 77
2019-08-19 21:00:00 24.1 8 Sudeste 17 Sudeste 0 -- -- 69
2019-08-19 20:00:00 24.1 11 Este 21 Este 0.2 -- -- 70
2019-08-19 19:00:00 25.4 11 Este 25 Sudeste 0 -- -- 69
2019-08-19 18:00:00 26.6 10 Este 28 Sudeste 0 -- -- 61
2019-08-19 17:00:00 28 11 Este 28 Este 0 -- -- 57
2019-08-19 16:00:00 29.8 14 Este 37 Este 0 -- -- 50
2019-08-19 15:00:00 29.3 16 Este 30 Este 0 -- -- 51
2019-08-19 14:00:00 27.7 9 Nordeste 21 Este 0 -- -- 53
2019-08-19 13:00:00 26.7 6 Nordeste 18 Este 0 -- -- 50
2019-08-19 12:00:00 25.5 6 Sudeste -- -- -- -- -- 51
2019-08-19 11:00:00 22.8 7 Noroeste 14 Oeste 0 -- -- 59
2019-08-19 10:00:00 21.3 5 Oeste 13 Oeste 0 -- -- 64
2019-08-19 09:00:00 19.4 0 Calma 8 Noroeste 0 -- -- 72
2019-08-19 08:00:00 16.7 0 Calma -- -- 0 -- -- 87
2019-08-19 07:00:00 16.6 0 Calma 5 Oeste 0 -- -- 85
2019-08-19 06:00:00 17.2 5 Oeste 9 Oeste 0 -- -- 82
2019-08-19 05:00:00 18.9 3 Sur 9 Sudoeste 0 -- -- 75
2019-08-19 04:00:00 21 5 Sur 13 Oeste 0 -- -- 67
2019-08-19 03:00:00 21.8 5 Oeste 17 Oeste 0 -- -- 66
2019-08-19 02:00:00 22.5 3 Noroeste 12 Oeste 0 -- -- 65
2019-08-19 01:00:00 24.4 8 Oeste 24 Oeste 0 -- -- 59
2019-08-19 00:00:00 27 19 Noroeste 36 Oeste 0 -- -- 57
2019-08-18 23:00:00 29.3 6 Oeste 24 Sudoeste 0 -- -- 32
2019-08-18 22:00:00 29.5 9 Sudoeste 32 Sudoeste 0 -- -- 33
2019-08-18 21:00:00 28.4 6 Nordeste 15 Oeste 0 -- -- 48
2019-08-18 20:00:00 30.3 6 Nordeste 16 Este 0 -- -- 49
2019-08-18 19:00:00 29.4 7 Sudeste 15 Sudeste 0 -- -- 57
2019-08-18 18:00:00 26.1 4 Oeste 10 Oeste 0.2 -- -- 82
2019-08-18 17:00:00 26.4 4 Este 15 Sudoeste 0.6 -- -- 82
2019-08-18 16:00:00 28 5 Sur 30 Sur 0.4 -- -- 66
2019-08-18 15:00:00 34.9 8 Nordeste 23 Nordeste 0 -- -- 39
2019-08-18 14:00:00 34.3 8 Este 20 Este 0 -- -- 35
2019-08-18 13:00:00 33 8 Nordeste 18 Nordeste 0 -- -- 40
2019-08-18 12:00:00 32 5 Norte 13 Este 0 -- -- 43
2019-08-18 11:00:00 29.8 4 Oeste 13 Oeste 0 -- -- 43
2019-08-18 10:00:00 26.2 7 Oeste 11 Oeste 0 -- -- 52
2019-08-18 09:00:00 21.4 0 Calma 12 Este 0 -- -- 64
2019-08-18 08:00:00 18.1 0 Calma 2 Este 0 -- -- 77
2019-08-18 07:00:00 18.2 0 Calma 6 Sudoeste 0 -- -- 75
2019-08-18 06:00:00 19.8 0 Calma 9 Oeste 0 -- -- 68
2019-08-18 05:00:00 21.6 3 Oeste 7 Oeste 0 -- -- 61
2019-08-18 04:00:00 24 2 Noroeste 9 Sudeste 0 -- -- 55
2019-08-18 03:00:00 27.6 2 Oeste 13 Sudoeste 0 -- -- 43
2019-08-18 02:00:00 30.3 6 Sudeste 21 Sur 0 -- -- 36
2019-08-18 01:00:00 30 8 Sur 23 Sudeste 0 -- -- 35
2019-08-18 00:00:00 29.6 14 Sudeste 35 Sudeste 0 -- -- 35
2019-08-17 23:00:00 27.7 6 Este 17 Sudeste 0 -- -- 48
2019-08-17 22:00:00 27.9 8 Sudeste 18 Sudeste 0 -- -- 54
2019-08-17 21:00:00 29.6 5 Sur 14 Este 0 -- -- 50
2019-08-17 20:00:00 31.8 7 Sudeste 26 Este 0 -- -- 48
2019-08-17 19:00:00 32.7 12 Sudeste 21 Este 0 -- -- 47
2019-08-17 18:00:00 32.4 10 Sudeste 22 Sudeste 0 -- -- 46
2019-08-17 17:00:00 32.2 8 Este 20 Nordeste 0 -- -- 49
2019-08-17 16:00:00 33.2 10 Nordeste 21 Este 0 -- -- 49
2019-08-17 15:00:00 33.6 8 Norte 21 Nordeste 0 -- -- 47
2019-08-17 14:00:00 32.8 9 Este 17 Este 0 -- -- 45
2019-08-17 13:00:00 31.5 8 Este 15 Nordeste 0 -- -- 44
2019-08-17 12:00:00 29.5 5 Nordeste 13 Nordeste 0 -- -- 49
2019-08-17 11:00:00 27.7 6 Nordeste 11 Nordeste 0 -- -- 54
2019-08-17 10:00:00 24.7 0 Calma -- -- 0 -- -- 60
2019-08-17 09:00:00 20.4 0 Calma -- -- 0 -- -- 80
2019-08-17 08:00:00 17.8 0 Calma -- -- 0 -- -- 87
2019-08-17 07:00:00 17.2 0 Calma -- -- 0 -- -- 85
2019-08-17 06:00:00 17.9 0 Calma -- -- 0 -- -- 85
2019-08-17 05:00:00 18 0 Calma -- -- 0 -- -- 84
2019-08-17 04:00:00 18.7 0 Calma -- -- 0 -- -- 82
2019-08-17 03:00:00 19.2 0 Calma -- -- 0 -- -- 80
2019-08-17 02:00:00 19.8 0 Calma 7 Oeste 0 -- -- 77
2019-08-17 01:00:00 20.8 2 Sur 6 Oeste 0 -- -- 74
2019-08-17 00:00:00 21.7 4 Oeste 6 Oeste 0 -- -- 71
2019-08-16 23:00:00 23.3 4 Oeste 8 Sudoeste 0 -- -- 65
2019-08-16 22:00:00 26 4 Sudoeste 10 Sur 0 -- -- 59
2019-08-16 21:00:00 28 6 Sudeste 19 Sudeste 0 -- -- 54
2019-08-16 20:00:00 30.2 8 Sudeste 18 Este 0 -- -- 49
2019-08-16 19:00:00 31 8 Este 18 Nordeste 0 -- -- 48
2019-08-16 18:00:00 30.5 4 Nordeste 15 Sudeste 0 -- -- 49
2019-08-16 17:00:00 30.7 10 Este 20 Este 0 -- -- 50
2019-08-16 16:00:00 31.9 9 Este 20 Este 0 -- -- 43
2019-08-16 15:00:00 31.2 9 Nordeste 20 Este 0 -- -- 44
2019-08-16 14:00:00 30.2 7 Este 19 Nordeste 0 -- -- 44
2019-08-16 13:00:00 28.1 5 Noroeste 14 Noroeste 0 -- -- 46
2019-08-16 12:00:00 26 5 Norte 15 Nordeste 0 -- -- 47
2019-08-16 11:00:00 24.4 4 Este 14 Nordeste 0 -- -- 46
2019-08-16 10:00:00 21.2 3 Noroeste 9 Oeste 0 -- -- 52
2019-08-16 09:00:00 17.3 0 Calma -- -- 0 -- -- 63
2019-08-16 08:00:00 14 0 Calma -- -- 0 -- -- 76
2019-08-16 07:00:00 13.5 0 Calma 5 Oeste 0 -- -- 76
2019-08-16 06:00:00 14.3 0 Calma 5 Sudoeste 0 -- -- 73
2019-08-16 05:00:00 14.7 2 Oeste 4 Oeste 0 -- -- 74
2019-08-16 04:00:00 15.8 0 Calma 4 Oeste 0 -- -- 70
2019-08-16 03:00:00 17.4 0 Calma 5 Oeste 0 -- -- 63
2019-08-16 02:00:00 19.2 2 Sur 8 Sudoeste 0 -- -- 56
2019-08-16 01:00:00 20.6 6 Sudoeste 10 Sudoeste 0 -- -- 52
2019-08-16 00:00:00 22.2 4 Sudoeste 14 Oeste 0 -- -- 47
2019-08-15 23:00:00 22.9 4 Oeste 14 Oeste 0 -- -- 46
2019-08-15 22:00:00 24.6 3 Oeste 10 Noroeste 0 -- -- 48
2019-08-15 21:00:00 28.1 6 Noroeste 21 Noroeste 0 -- -- 35
2019-08-15 20:00:00 30.1 10 Oeste 23 Noroeste 0 -- -- 39
2019-08-15 19:00:00 31 8 Noroeste 18 Oeste 0 -- -- 38
2019-08-15 18:00:00 30.9 9 Noroeste 19 Norte 0 -- -- 39
2019-08-15 17:00:00 30.1 12 Noroeste 27 Oeste 0 -- -- 40
2019-08-15 16:00:00 30.4 9 Norte 26 Oeste 0 -- -- 39
2019-08-15 15:00:00 29.9 9 Noroeste 23 Noroeste 0 -- -- 40
2019-08-15 14:00:00 28.8 9 Noroeste 22 Nordeste 0 -- -- 43
2019-08-15 13:00:00 27.6 5 Norte 17 Noroeste 0 -- -- 46
2019-08-15 12:00:00 25.9 7 Norte 20 Oeste 0 -- -- 49
2019-08-15 11:00:00 24.3 10 Noroeste 17 Noroeste 0 -- -- 55
2019-08-15 10:00:00 22.6 10 Noroeste 19 Noroeste 0 -- -- 61
2019-08-15 09:00:00 18.6 0 Calma -- -- 0 -- -- 64
2019-08-15 08:00:00 13.9 0 Calma 4 Oeste 0 -- -- 79
2019-08-15 07:00:00 13.2 3 Oeste 5 Oeste 0 -- -- 80
2019-08-15 06:00:00 13.6 0 Calma 5 Oeste 0 -- -- 78
2019-08-15 05:00:00 14.2 0 Calma 4 Sur 0 -- -- 75
2019-08-15 04:00:00 14.6 3 Oeste 5 Oeste 0 -- -- 72
2019-08-15 03:00:00 15.6 3 Sudeste 5 Este 0 -- -- 67
2019-08-15 02:00:00 15.5 0 Calma 7 Oeste 0 -- -- 63
2019-08-15 01:00:00 16.5 0 Calma 5 Oeste 0 -- -- 62
2019-08-15 00:00:00 18.1 0 Calma -- -- 0 -- -- 60
2019-08-14 23:00:00 20.2 0 Calma -- -- 0 -- -- 52
2019-08-14 22:00:00 23.5 0 Calma 8 Sudoeste 0 -- -- 41
2019-08-14 21:00:00 27.4 2 Oeste 7 Norte 0 -- -- 33
2019-08-14 20:00:00 31.2 6 Oeste 17 Noroeste 0 -- -- 29
2019-08-14 19:00:00 30.8 13 Oeste 27 Oeste 0 -- -- 25
2019-08-14 18:00:00 30.9 12 Noroeste 30 Oeste 0 -- -- 23
2019-08-14 17:00:00 30.9 12 Oeste 30 Noroeste 0 -- -- 22
2019-08-14 16:00:00 30.4 7 Noroeste 29 Noroeste 0 -- -- 21
2019-08-14 15:00:00 29.9 13 Noroeste 28 Oeste 0 -- -- 22
2019-08-14 14:00:00 29 11 Noroeste 23 Noroeste 0 -- -- 22
2019-08-14 13:00:00 27.5 7 Noroeste 15 Noroeste 0 -- -- 25
2019-08-14 12:00:00 25.8 4 Noroeste 14 Oeste 0 -- -- 31
2019-08-14 11:00:00 23.9 3 Noroeste 6 Noroeste 0 -- -- 32
2019-08-14 10:00:00 19.7 0 Calma 5 Oeste 0 -- -- 48
2019-08-14 09:00:00 14 0 Calma 4 Oeste 0 -- -- 67
2019-08-14 08:00:00 9.3 0 Calma 4 Oeste 0 -- -- 85
2019-08-14 07:00:00 9.2 0 Calma 4 Oeste 0 -- -- 84
2019-08-14 06:00:00 9.7 2 Oeste 5 Oeste 0 -- -- 82
2019-08-14 05:00:00 10.1 0 Calma -- -- 0 -- -- 81
2019-08-14 04:00:00 10.9 0 Calma 0 Calma 0 -- -- 76
2019-08-14 03:00:00 11.8 0 Calma 5 Oeste 0 -- -- 74
2019-08-14 02:00:00 13 0 Calma 8 Sudoeste 0 -- -- 71
2019-08-14 01:00:00 14.1 0 Calma 6 Este 0 -- -- 64
2019-08-14 00:00:00 14.6 0 Calma 5 Oeste 0 -- -- 61
2019-08-13 23:00:00 16.4 0 Calma 4 Sudeste 0 -- -- 57
2019-08-13 22:00:00 19.3 0 Calma 6 Sudoeste 0 -- -- 44
2019-08-13 21:00:00 23.9 2 Oeste 16 Oeste 0 -- -- 33
2019-08-13 20:00:00 25.5 6 Noroeste 27 Oeste 0 -- -- 31
2019-08-13 19:00:00 26.3 11 Noroeste 23 Noroeste 0 -- -- 33
2019-08-13 18:00:00 26 12 Noroeste 24 Noroeste 0 -- -- 34
2019-08-13 17:00:00 25.9 13 Noroeste 25 Noroeste 0 -- -- 35
2019-08-13 16:00:00 25.6 10 Noroeste 29 Noroeste 0 -- -- 36
2019-08-13 15:00:00 24.8 10 Noroeste 21 Oeste 0 -- -- 37
2019-08-13 14:00:00 23.2 10 Noroeste 23 Noroeste 0 -- -- 39
2019-08-13 13:00:00 22.3 12 Noroeste 24 Oeste 0 -- -- 40
2019-08-13 12:00:00 20 9 Noroeste 21 Noroeste 0 -- -- 43
2019-08-13 11:00:00 19.2 10 Noroeste 22 Oeste 0 -- -- 45
2019-08-13 10:00:00 18 9 Noroeste 15 Noroeste 0 -- -- 51
2019-08-13 09:00:00 15.9 4 Oeste 10 Oeste 0 -- -- 62
2019-08-13 08:00:00 14.5 2 Sudoeste 6 Sudoeste 0 -- -- 66
2019-08-13 07:00:00 14.5 0 Calma 9 Oeste 0 -- -- 67
2019-08-13 06:00:00 14.6 3 Oeste 8 Sudoeste 0 -- -- 65
2019-08-13 05:00:00 15.2 4 Sudoeste 7 Oeste 0 -- -- 63
2019-08-13 04:00:00 16.2 3 Sur 17 Oeste 0 -- -- 58
2019-08-13 03:00:00 16.6 7 Oeste 17 Oeste 0 -- -- 58
2019-08-13 02:00:00 17.1 5 Oeste 15 Oeste 0 -- -- 55
2019-08-13 01:00:00 17.5 2 Sudoeste 15 Oeste 0 -- -- 54
2019-08-13 00:00:00 18.3 8 Oeste 18 Oeste 0 -- -- 50
2019-08-12 23:00:00 19.2 12 Oeste 24 Oeste 0 -- -- 47
2019-08-12 22:00:00 20.3 9 Oeste 25 Oeste 0 -- -- 44
2019-08-12 21:00:00 22.1 12 Oeste 24 Oeste 0 -- -- 38
2019-08-12 20:00:00 24.3 12 Noroeste 30 Oeste 0 -- -- 35
2019-08-12 19:00:00 25.2 11 Noroeste 36 Oeste 0 -- -- 30
2019-08-12 18:00:00 25.6 14 Noroeste 30 Noroeste 0 -- -- 33
2019-08-12 17:00:00 25.7 12 Noroeste 32 Oeste 0 -- -- 33
2019-08-12 16:00:00 25.5 16 Oeste 35 Oeste 0 -- -- 33
2019-08-12 15:00:00 25.3 14 Oeste 28 Noroeste 0 -- -- 35
2019-08-12 14:00:00 24.1 15 Oeste 30 Noroeste 0 -- -- 38
2019-08-12 13:00:00 22.9 16 Oeste 32 Noroeste 0 -- -- 44
2019-08-12 12:00:00 21.8 18 Noroeste 30 Noroeste 0 -- -- 49
2019-08-12 11:00:00 20.3 8 Oeste 23 Noroeste 0 -- -- 54
2019-08-12 10:00:00 18.8 14 Noroeste 25 Oeste 0 -- -- 58
2019-08-12 09:00:00 18.1 8 Oeste 16 Oeste 0 -- -- 63
2019-08-12 08:00:00 17.3 6 Oeste 26 Noroeste 0 -- -- 66
2019-08-12 07:00:00 17.7 10 Noroeste 18 Oeste 0 -- -- 65
2019-08-12 06:00:00 18.5 11 Noroeste 22 Oeste 0 -- -- 61
2019-08-12 05:00:00 19.3 6 Noroeste 18 Oeste 0 -- -- 58
2019-08-12 04:00:00 19.5 6 Oeste 14 Sudoeste 0 -- -- 56
2019-08-12 03:00:00 20.1 7 Oeste 25 Oeste 0 -- -- 55
2019-08-12 02:00:00 20.9 4 Oeste 18 Noroeste 0 -- -- 55
2019-08-12 01:00:00 21.9 10 Oeste 23 Oeste 0 -- -- 53
2019-08-12 00:00:00 23.6 12 Oeste 27 Oeste 0 -- -- 49
2019-08-11 23:00:00 25.3 10 Oeste 28 Noroeste 0 -- -- 43
2019-08-11 22:00:00 26.4 0 Calma 10 Sudeste 0 -- -- 55
2019-08-11 21:00:00 28.4 6 Sudeste 16 Sudeste 0 -- -- 49
2019-08-11 20:00:00 30.7 5 Este 11 Nordeste 0 -- -- 42
2019-08-11 19:00:00 30.4 8 Sudeste 17 Este 0 -- -- 45
2019-08-11 18:00:00 29.2 13 Sudeste 27 Sudeste 0 -- -- 49
2019-08-11 17:00:00 29.4 10 Este 27 Sudeste 0 -- -- 48
2019-08-11 16:00:00 28.1 18 Sudeste 34 Sudeste 0 -- -- 56
2019-08-11 15:00:00 28.2 8 Norte 24 Noroeste 0 -- -- 48
2019-08-11 14:00:00 27.9 11 Oeste 20 Oeste 0 -- -- 49
2019-08-11 13:00:00 26.6 7 Norte 18 Oeste 0 -- -- 53
2019-08-11 12:00:00 24.8 4 Norte 20 Oeste 0 -- -- 57
2019-08-11 11:00:00 23.5 7 Noroeste 21 Noroeste 0 -- -- 59
2019-08-11 10:00:00 22.8 12 Noroeste 24 Oeste 0 -- -- 61
2019-08-11 09:00:00 22 12 Oeste 21 Oeste 0 -- -- 68
2019-08-11 08:00:00 19.5 8 Oeste 14 Sudeste 0 -- -- 83
2019-08-11 07:00:00 18.1 3 Este 5 Oeste 0 -- -- 85
2019-08-11 06:00:00 18.4 0 Calma 8 Oeste 0 -- -- 84
2019-08-11 05:00:00 18.9 0 Calma -- -- 0 -- -- 82
2019-08-11 04:00:00 19.5 0 Calma -- -- 0 -- -- 80
2019-08-11 03:00:00 19.9 0 Calma 6 Sudeste 0 -- -- 80
2019-08-11 02:00:00 20.8 0 Calma 4 Oeste 0 -- -- 75
2019-08-11 01:00:00 22 4 Oeste 8 Oeste 0 -- -- 72
2019-08-11 00:00:00 23.9 2 Sudeste 5 Sudoeste 0 -- -- 66
2019-08-10 23:00:00 26.1 3 Sur 12 Este 0 -- -- 59
2019-08-10 22:00:00 27.2 6 Este 23 Sudeste 0 -- -- 59
2019-08-10 21:00:00 28.8 6 Este 19 Este 0 -- -- 57
2019-08-10 20:00:00 30.2 10 Sudeste 23 Sudeste 0 -- -- 52
2019-08-10 19:00:00 30.9 8 Sur 23 Este 0 -- -- 52
2019-08-10 18:00:00 31.2 13 Sudeste 23 Este 0 -- -- 50
2019-08-10 17:00:00 32.1 8 Este 28 Este 0 -- -- 47
2019-08-10 16:00:00 32.6 12 Este 23 Este 0 -- -- 44
2019-08-10 15:00:00 31.7 8 Norte 22 Nordeste 0 -- -- 35
2019-08-10 14:00:00 30.6 9 Nordeste 18 Este 0 -- -- 38
2019-08-10 13:00:00 29.3 12 Nordeste 20 Este 0 -- -- 39
2019-08-10 12:00:00 27.7 5 Sudoeste 18 Noroeste 0 -- -- 44
2019-08-10 11:00:00 25.9 6 Oeste 20 Noroeste 0 -- -- 47
2019-08-10 10:00:00 24.5 8 Noroeste 15 Oeste 0 -- -- 54
2019-08-10 09:00:00 21.8 0 Calma -- -- 0 -- -- 69
2019-08-10 08:00:00 18.2 0 Calma 4 Sur 0 -- -- 83
2019-08-10 07:00:00 17.7 0 Calma 6 Oeste 0 -- -- 84
2019-08-10 06:00:00 18.7 0 Calma -- -- 0 -- -- 81
2019-08-10 05:00:00 20.1 0 Calma -- -- 0 -- -- 77
2019-08-10 04:00:00 21.4 0 Calma 6 Oeste 0 -- -- 74
2019-08-10 03:00:00 23.1 2 Sudoeste 9 Sudoeste 0 -- -- 70
2019-08-10 02:00:00 25.1 4 Sudoeste 13 Oeste 0 -- -- 62
2019-08-10 01:00:00 26.5 10 Noroeste 31 Oeste 0 -- -- 58
2019-08-10 00:00:00 27.3 15 Oeste 31 Oeste 0 -- -- 53
2019-08-09 23:00:00 26.1 0 Calma 6 Oeste 0 -- -- 53
2019-08-09 22:00:00 28.4 4 Sudoeste 8 Sur 0 -- -- 44
2019-08-09 21:00:00 33 2 Sudeste 10 Este 0 -- -- 37
2019-08-09 20:00:00 34.8 4 Sudeste 15 Sudeste 0 -- -- 33
2019-08-09 19:00:00 35.5 9 Sudeste 23 Sudeste 0 -- -- 33
2019-08-09 18:00:00 37.5 14 Sudeste 25 Este 0 -- -- 29
2019-08-09 17:00:00 37.8 9 Este 21 Este 0 -- -- 30
2019-08-09 16:00:00 37.6 8 Norte 24 Este 0 -- -- 23
2019-08-09 15:00:00 37.2 10 Este 24 Nordeste 0 -- -- 23
2019-08-09 14:00:00 36 10 Nordeste 21 Este 0 -- -- 25
2019-08-09 13:00:00 35.5 6 Este 19 Este 0 -- -- 27
2019-08-09 12:00:00 34.4 7 Noroeste 18 Noroeste 0 -- -- 29
2019-08-09 11:00:00 32.8 7 Noroeste 14 Norte 0 -- -- 34
2019-08-09 10:00:00 28 0 Calma 4 Este 0 -- -- 42
2019-08-09 09:00:00 22.3 0 Calma -- -- 0 -- -- 59
2019-08-09 08:00:00 18 0 Calma -- -- 0 -- -- 79
2019-08-09 07:00:00 17.1 0 Calma -- -- 0 -- -- 78
2019-08-09 06:00:00 17.7 0 Calma -- -- 0 -- -- 78
2019-08-09 05:00:00 18.1 0 Calma -- -- 0 -- -- 76
2019-08-09 04:00:00 18.7 0 Calma -- -- 0 -- -- 74
2019-08-09 03:00:00 19.8 0 Calma -- -- 0 -- -- 72
2019-08-09 02:00:00 20.9 0 Calma -- -- 0 -- -- 68
2019-08-09 01:00:00 21.7 0 Calma -- -- 0 -- -- 64
2019-08-09 00:00:00 23.5 0 Calma 8 Sur 0 -- -- 59
2019-08-08 23:00:00 26.4 2 Sur 8 Sudeste 0 -- -- 50
2019-08-08 22:00:00 28.5 4 Sudeste 13 Sudeste 0 -- -- 45
2019-08-08 21:00:00 30.4 8 Sudeste 23 Sudeste 0 -- -- 42
2019-08-08 20:00:00 32.5 12 Sudeste 26 Este 0 -- -- 38
2019-08-08 19:00:00 33.8 13 Este 25 Sudeste 0 -- -- 36
2019-08-08 18:00:00 33.9 13 Sudeste 35 Sudeste 0 -- -- 37
2019-08-08 17:00:00 34.8 18 Sudeste 31 Sudeste 0 -- -- 37
2019-08-08 16:00:00 34.7 8 Nordeste 19 Este 0 -- -- 29
2019-08-08 15:00:00 34.2 8 Nordeste 20 Noroeste 0 -- -- 31
2019-08-08 14:00:00 32.8 8 Norte 17 Noroeste 0 -- -- 32
2019-08-08 13:00:00 31.4 7 Noroeste 17 Este 0 -- -- 34
2019-08-08 12:00:00 30.1 5 Oeste 17 Noroeste 0 -- -- 37
2019-08-08 11:00:00 28.5 6 Noroeste 23 Oeste 0 -- -- 38
2019-08-08 10:00:00 26.5 6 Este 10 Oeste 0 -- -- 43
2019-08-08 09:00:00 22.5 0 Calma -- -- 0 -- -- 63
2019-08-08 08:00:00 18.2 0 Calma -- -- 0 -- -- 82
2019-08-08 07:00:00 17 0 Calma 5 Oeste 0 -- -- 85
2019-08-08 06:00:00 17.9 2 Oeste 9 Oeste 0 -- -- 82
2019-08-08 05:00:00 19.2 0 Calma 4 Sur 0 -- -- 77
2019-08-08 04:00:00 20.4 0 Calma 6 Oeste 0 -- -- 74
2019-08-08 03:00:00 22.5 0 Calma 10 Oeste 0 -- -- 66
2019-08-08 02:00:00 24.4 3 Oeste 9 Sur 0 -- -- 57
2019-08-08 01:00:00 24.4 3 Sudoeste 12 Sudoeste 0 -- -- 56
2019-08-08 00:00:00 23.5 5 Sudoeste 25 Este 0 -- -- 56
2019-08-07 23:00:00 23.6 2 Oeste 6 Oeste 0 -- -- 60
2019-08-07 22:00:00 25.1 3 Sudoeste 9 Este 0 -- -- 54
2019-08-07 21:00:00 27.8 4 Sudoeste 10 Nordeste 0 -- -- 42
2019-08-07 20:00:00 30.5 5 Noroeste 15 Oeste 0 -- -- 36
2019-08-07 19:00:00 30.5 6 Nordeste 14 Nordeste 0 -- -- 35
2019-08-07 18:00:00 31.1 6 Oeste 15 Oeste 0 -- -- 35
2019-08-07 17:00:00 30.9 10 Noroeste 24 Oeste 0 -- -- 35
2019-08-07 16:00:00 30.7 14 Noroeste 27 Noroeste 0 -- -- 36
2019-08-07 15:00:00 30.1 9 Noroeste 21 Oeste 0 -- -- 38
2019-08-07 14:00:00 29.6 11 Noroeste 19 Oeste 0 -- -- 38
2019-08-07 13:00:00 30 8 Oeste 16 Noroeste 0 -- -- 39
2019-08-07 12:00:00 28.1 5 Noroeste 16 Oeste 0 -- -- 47
2019-08-07 11:00:00 26.4 7 Noroeste 15 Norte 0 -- -- 54
2019-08-07 10:00:00 24.6 7 Noroeste 14 Oeste 0 -- -- 60
2019-08-07 09:00:00 22.6 0 Calma 5 Sudoeste 0 -- -- 69
2019-08-07 08:00:00 20.4 0 Calma 6 Sudeste 0 -- -- 77
2019-08-07 07:00:00 21 0 Calma 8 Sudoeste 0 -- -- 74
2019-08-07 06:00:00 22.5 3 Sur 6 Oeste 0 -- -- 67
2019-08-07 05:00:00 24.1 4 Noroeste 24 Noroeste 0 -- -- 64
2019-08-07 04:00:00 23.9 9 Oeste 20 Noroeste 0 -- -- 45
2019-08-07 03:00:00 28.3 6 Sudoeste 19 Sur 0 -- -- 37
2019-08-07 02:00:00 29.3 7 Sur 19 Sur 0 -- -- 34
2019-08-07 01:00:00 28.8 6 Sudoeste 16 Sudoeste 0 -- -- 39
2019-08-07 00:00:00 26.5 2 Sudoeste 13 Sur 0 -- -- 49
2019-08-06 23:00:00 26.3 0 Calma 9 Sudeste 0 -- -- 47
2019-08-06 22:00:00 29.6 5 Sudeste 12 Este 0 -- -- 38
2019-08-06 21:00:00 30.8 2 Nordeste 17 Sur 0 -- -- 38
2019-08-06 20:00:00 32.8 9 Sudeste 23 Sudeste 0 -- -- 34
2019-08-06 19:00:00 33.9 12 Sudeste 24 Sudeste 0 -- -- 38
2019-08-06 18:00:00 33.2 10 Sudeste 28 Sudeste 0 -- -- 46
2019-08-06 17:00:00 35.4 8 Este 27 Sudeste 0 -- -- 34
2019-08-06 16:00:00 34.4 8 Norte 23 Norte 0 -- -- 33
2019-08-06 15:00:00 34.9 10 Sudeste 21 Nordeste 0 -- -- 32
2019-08-06 14:00:00 33.1 6 Nordeste 19 Este 0 -- -- 41
2019-08-06 13:00:00 31.7 5 Este 17 Nordeste 0 -- -- 44
2019-08-06 12:00:00 29.9 7 Nordeste 16 Nordeste 0 -- -- 48
2019-08-06 11:00:00 28.1 4 Este 8 Nordeste 0 -- -- 51
2019-08-06 10:00:00 25.3 0 Calma -- -- 0 -- -- 60
2019-08-06 09:00:00 21.7 0 Calma -- -- 0 -- -- 66
2019-08-06 08:00:00 18.4 0 Calma -- -- 0 -- -- 78
2019-08-06 07:00:00 17.7 0 Calma 5 Sudoeste 0 -- -- 76
2019-08-06 06:00:00 18 0 Calma 6 Norte 0 -- -- 77
2019-08-06 05:00:00 18.1 0 Calma 9 Oeste 0 -- -- 75
2019-08-06 04:00:00 18.6 4 Este 9 Oeste 0 -- -- 74
2019-08-06 03:00:00 19.2 5 Oeste 12 Oeste 0 -- -- 70
2019-08-06 02:00:00 20 0 Calma 5 Oeste 0 -- -- 70
2019-08-06 01:00:00 21.1 0 Calma 4 Sudoeste 0 -- -- 64
2019-08-06 00:00:00 23.1 0 Calma 8 Sudoeste 0 -- -- 59
2019-08-05 23:00:00 25.1 4 Oeste 12 Sudeste 0 -- -- 53
2019-08-05 22:00:00 28.5 5 Sudeste 15 Sudeste 0 -- -- 43
2019-08-05 21:00:00 30.5 7 Sudeste 23 Este 0 -- -- 38
2019-08-05 20:00:00 32.1 11 Este 28 Sudeste 0 -- -- 36
2019-08-05 19:00:00 33 13 Sudeste 27 Este 0 -- -- 33
2019-08-05 18:00:00 33.8 14 Sudeste 32 Sudeste 0 -- -- 34
2019-08-05 17:00:00 34.4 18 Sudeste 33 Sudeste 0 -- -- 35
2019-08-05 16:00:00 34.9 16 Sudeste 30 Sudeste 0 -- -- 36
2019-08-05 15:00:00 33.5 8 Norte 21 Nordeste 0 -- -- 46
2019-08-05 14:00:00 32.5 5 Nordeste 17 Noroeste 0 -- -- 45
2019-08-05 13:00:00 31 5 Nordeste 16 Nordeste 0 -- -- 45
2019-08-05 12:00:00 -- -- -- -- -- -- -- -- --
2019-08-05 11:00:00 27 3 Este 9 Este 0 -- -- 54
2019-08-05 10:00:00 24.4 3 Este 8 Noroeste 0 -- -- 62
2019-08-05 09:00:00 21.6 0 Calma 4 Nordeste 0 -- -- 70
2019-08-05 08:00:00 19 3 Nordeste 5 Este 0 -- -- 76
2019-08-05 07:00:00 18.8 0 Calma 5 Sudeste 0 -- -- 75
2019-08-05 06:00:00 19.9 2 Este 6 Oeste 0 -- -- 73
2019-08-05 05:00:00 20.2 4 Oeste 9 Oeste 0 -- -- 65
2019-08-05 04:00:00 21.2 3 Oeste 14 Oeste 0 -- -- 64
2019-08-05 03:00:00 22.3 4 Oeste 15 Sudeste 0 -- -- 57
2019-08-05 02:00:00 23.9 3 Sur 12 Sur 0 -- -- 55
2019-08-05 01:00:00 25.7 4 Nordeste 17 Sur 0 -- -- 49
2019-08-05 00:00:00 26 3 Nordeste 11 Sudeste 0 -- -- 53
2019-08-04 23:00:00 26.1 2 Sudeste 13 Sudeste 0 -- -- 51
2019-08-04 22:00:00 27.4 3 Sur 12 Este 0 -- -- 45
2019-08-04 21:00:00 29.5 7 Sudeste 19 Sudeste 0 -- -- 42
2019-08-04 20:00:00 30 12 Sudeste 21 Sur 0 -- -- 44
2019-08-04 19:00:00 31.1 6 Sudeste 30 Sudeste 0 -- -- 42
2019-08-04 18:00:00 33.5 15 Sudeste 34 Sudeste 0 -- -- 34
2019-08-04 17:00:00 33.5 14 Este 31 Sudeste 0 -- -- 40
2019-08-04 16:00:00 32.6 14 Sudeste 29 Este 0 -- -- 42
2019-08-04 15:00:00 33.9 9 Nordeste 20 Nordeste 0 -- -- 39
2019-08-04 14:00:00 33 5 Nordeste 17 Este 0 -- -- 41
2019-08-04 13:00:00 31.6 7 Este 15 Este 0 -- -- 42
2019-08-04 12:00:00 30 10 Este 16 Este 0 -- -- 47
2019-08-04 11:00:00 27.5 0 Calma 0 Calma 0 -- -- 56
2019-08-04 10:00:00 23.9 0 Calma -- -- 0 -- -- 63
2019-08-04 09:00:00 20.1 0 Calma -- -- 0 -- -- 79
2019-08-04 08:00:00 17.1 0 Calma -- -- 0 -- -- 92
2019-08-04 07:00:00 16.6 0 Calma -- -- 0 -- -- 91
2019-08-04 06:00:00 17 0 Calma -- -- 0 -- -- 91
2019-08-04 05:00:00 17.7 0 Calma -- -- 0 -- -- 90
2019-08-04 04:00:00 18.5 0 Calma -- -- 0 -- -- 89
2019-08-04 03:00:00 19.1 0 Calma -- -- 0 -- -- 88
2019-08-04 02:00:00 19.6 0 Calma -- -- 0 -- -- 87
2019-08-04 01:00:00 20.3 0 Calma 6 Noroeste 0 -- -- 86
2019-08-04 00:00:00 20.9 0 Calma 10 Sudoeste 0 -- -- 86
2019-08-03 23:00:00 21.8 3 Sudeste 18 Sudoeste 0 -- -- 84
2019-08-03 22:00:00 23.5 6 Sudoeste 17 Sudeste 1.6 -- -- 78
2019-08-03 21:00:00 27.4 15 Sudeste 30 Sudeste 0 -- -- 53
2019-08-03 20:00:00 28.6 12 Sudeste 27 Sudeste 0 -- -- 51
2019-08-03 19:00:00 30.5 15 Este 31 Este 0 -- -- 47
2019-08-03 18:00:00 32.7 15 Este 33 Este 0 -- -- 42
2019-08-03 17:00:00 33.2 21 Este 35 Sudeste 0 -- -- 42
2019-08-03 16:00:00 34.2 16 Sudeste 31 Este 0 -- -- 38
2019-08-03 15:00:00 34.3 15 Sudeste 30 Este 0 -- -- 33
2019-08-03 14:00:00 33.8 14 Sudeste 27 Este 0 -- -- 35
2019-08-03 13:00:00 31.5 5 Nordeste 14 Norte 0 -- -- 40
2019-08-03 12:00:00 29.5 5 Este 15 Este 0 -- -- 41
2019-08-03 11:00:00 27.8 6 Nordeste 11 Nordeste 0 -- -- 42
2019-08-03 10:00:00 24.2 0 Calma 3 Noroeste 0 -- -- 51
2019-08-03 09:00:00 20.3 0 Calma 3 Norte 0 -- -- 65
2019-08-03 08:00:00 16.2 0 Calma 4 Sudoeste 0 -- -- 83
2019-08-03 07:00:00 15.3 0 Calma 5 Oeste 0 -- -- 82
2019-08-03 06:00:00 16.2 0 Calma 5 Oeste 0 -- -- 79
2019-08-03 05:00:00 17.2 0 Calma 7 Oeste 0 -- -- 75
2019-08-03 04:00:00 17.9 3 Este 6 Oeste 0 -- -- 75
2019-08-03 03:00:00 18.6 0 Calma -- -- 0 -- -- 72
2019-08-03 02:00:00 19.3 0 Calma -- -- 0 -- -- 68
2019-08-03 01:00:00 20.1 0 Calma 6 Oeste 0 -- -- 66
2019-08-03 00:00:00 21.7 2 Sudoeste 5 Sudoeste 0 -- -- 61
2019-08-02 23:00:00 24 3 Sudoeste 7 Sudoeste 0 -- -- 51
2019-08-02 22:00:00 26.7 0 Calma 8 Sudeste 0 -- -- 44
2019-08-02 21:00:00 29.8 7 Sudeste 12 Este 0 -- -- 38
2019-08-02 20:00:00 31.9 6 Sudeste 17 Sudeste 0 -- -- 33
2019-08-02 19:00:00 32.3 12 Sudeste 21 Nordeste 0 -- -- 32
2019-08-02 18:00:00 33.1 8 Sudeste 23 Sur 0 -- -- 31
2019-08-02 17:00:00 33.1 5 Norte 18 Oeste 0 -- -- 32
2019-08-02 16:00:00 32.4 7 Este 15 Sudeste 0 -- -- 34
2019-08-02 15:00:00 31.2 7 Norte 17 Norte 0 -- -- 38
2019-08-02 14:00:00 29.8 5 Nordeste 14 Oeste 0 -- -- 42
2019-08-02 13:00:00 28.1 4 Noroeste 15 Noroeste 0 -- -- 48
2019-08-02 12:00:00 26.4 6 Norte 16 Noroeste 0 -- -- 53
2019-08-02 11:00:00 24.7 8 Noroeste 19 Noroeste 0 -- -- 59
2019-08-02 10:00:00 22.9 8 Noroeste 17 Oeste 0 -- -- 65
2019-08-02 09:00:00 20.9 0 Calma -- -- 0 -- -- 72
2019-08-02 08:00:00 17.6 0 Calma 3 Oeste 0 -- -- 84
2019-08-02 07:00:00 17.3 0 Calma 4 Este 0 -- -- 82
2019-08-02 06:00:00 18.8 0 Calma 8 Sudoeste 0 -- -- 77
2019-08-02 05:00:00 20.2 5 Sudoeste 13 Sudoeste 0 -- -- 73
2019-08-02 04:00:00 20.3 3 Sudoeste 17 Oeste 0 -- -- 71
2019-08-02 03:00:00 19.5 5 Oeste 12 Oeste 0 -- -- 72
2019-08-02 02:00:00 19.3 0 Calma 13 Oeste 0 -- -- 66
2019-08-02 01:00:00 20.3 0 Calma 4 Sudoeste 0 -- -- 63
2019-08-02 00:00:00 21.3 0 Calma 7 Sudoeste 0 -- -- 59
2019-08-01 23:00:00 23 3 Oeste 7 Sudoeste 0 -- -- 56
2019-08-01 22:00:00 25.5 3 Sudoeste 10 Sudeste 0 -- -- 48
2019-08-01 21:00:00 28.3 4 Nordeste 12 Norte 0 -- -- 42
2019-08-01 20:00:00 29.5 7 Nordeste 21 Nordeste 0 -- -- 39
2019-08-01 19:00:00 30.3 12 Nordeste 24 Nordeste 0 -- -- 39
2019-08-01 18:00:00 30.8 12 Nordeste 23 Nordeste 0 -- -- 37
2019-08-01 17:00:00 31.4 8 Nordeste 22 Este 0 -- -- 41
2019-08-01 16:00:00 31.4 8 Nordeste 21 Nordeste 0 -- -- 42
2019-08-01 15:00:00 31 8 Nordeste 25 Norte 0 -- -- 41
2019-08-01 14:00:00 30.9 5 Este 16 Sudeste 0 -- -- 39
2019-08-01 13:00:00 29.2 7 Norte 17 Este 0 -- -- 44
2019-08-01 12:00:00 28.1 8 Norte 16 Norte 0 -- -- 48
2019-08-01 11:00:00 26.2 5 Nordeste 14 Norte 0 -- -- 51
2019-08-01 10:00:00 23.8 5 Norte 12 Nordeste 0 -- -- 60
2019-08-01 09:00:00 20.4 4 Nordeste 8 Nordeste 0 -- -- 73
2019-08-01 08:00:00 16.3 0 Calma 8 Oeste 0 -- -- 87
2019-08-01 07:00:00 15.7 5 Oeste 9 Oeste 0 -- -- 87
2019-08-01 06:00:00 16.2 5 Oeste 9 Oeste 0 -- -- 86
2019-08-01 05:00:00 16.9 3 Noroeste 8 Oeste 0 -- -- 85
2019-08-01 04:00:00 18.2 6 Oeste 8 Oeste 0 -- -- 78
2019-08-01 03:00:00 21.5 5 Sudeste 14 Sudeste 0 -- -- 66
2019-08-01 02:00:00 19.3 5 Este 11 Este 0 -- -- 77
2019-08-01 01:00:00 19.5 0 Calma 7 Sudoeste 0 -- -- 78
2019-08-01 00:00:00 20.6 0 Calma 6 Sudoeste 0 -- -- 75
2019-07-31 23:00:00 22.2 4 Sudoeste 8 Sudoeste 0 -- -- 70
2019-07-31 22:00:00 23.8 3 Sudeste 17 Este 0 -- -- 66
2019-07-31 21:00:00 24.4 8 Sudeste 23 Este 0 -- -- 65
2019-07-31 20:00:00 25.9 13 Sudeste 27 Sudeste 0 -- -- 59
2019-07-31 19:00:00 27.1 19 Sudeste 31 Sudeste 0 -- -- 55
2019-07-31 18:00:00 28.1 15 Sudeste 32 Sudeste 0 -- -- 51
2019-07-31 17:00:00 27.9 15 Sudeste 35 Sudeste 0 -- -- 51
2019-07-31 16:00:00 27.6 15 Este 29 Sudeste 0 -- -- 50
2019-07-31 15:00:00 27.8 14 Sudeste 40 Sudeste 0 -- -- 49
2019-07-31 14:00:00 27.8 17 Sudeste 38 Este 0 -- -- 45
2019-07-31 13:00:00 25.5 9 Nordeste 17 Norte 0 -- -- 40
2019-07-31 12:00:00 23.5 5 Norte 14 Este 0 -- -- 40
2019-07-31 11:00:00 21.6 6 Nordeste 10 Nordeste 0 -- -- 43
2019-07-31 10:00:00 18.6 0 Calma 6 Oeste 0 -- -- 52
2019-07-31 09:00:00 15.2 0 Calma 2 Noroeste 0 -- -- 64
2019-07-31 08:00:00 11.3 0 Calma 4 Noroeste 0 -- -- 81
2019-07-31 07:00:00 11.3 3 Oeste 6 Oeste 0 -- -- 79
2019-07-31 06:00:00 12 0 Calma 4 Oeste 0 -- -- 76
2019-07-31 05:00:00 13 0 Calma 4 Sudoeste 0 -- -- 73
2019-07-31 04:00:00 14.3 3 Oeste 5 Oeste 0 -- -- 70
2019-07-31 03:00:00 15.9 0 Calma 10 Sudoeste 0 -- -- 63
2019-07-31 02:00:00 17.9 4 Sudoeste 13 Oeste 0 -- -- 52
2019-07-31 01:00:00 19 2 Oeste 14 Oeste 0 -- -- 51
2019-07-31 00:00:00 19.5 4 Oeste 10 Oeste 0 -- -- 52
2019-07-30 23:00:00 21.7 0 Calma 15 Noroeste 0 -- -- 46
2019-07-30 22:00:00 23.6 9 Oeste 20 Noroeste 0 -- -- 39
2019-07-30 21:00:00 25.8 10 Noroeste 23 Oeste 0 -- -- 35
2019-07-30 20:00:00 27.6 11 Noroeste 24 Noroeste 0 -- -- 33
2019-07-30 19:00:00 28.2 9 Oeste 25 Noroeste 0 -- -- 33
2019-07-30 18:00:00 28.4 10 Oeste 26 Oeste 0 -- -- 33
2019-07-30 17:00:00 28 8 Oeste 27 Oeste 0 -- -- 35
2019-07-30 16:00:00 27.9 6 Sudoeste 21 Noroeste 0 -- -- 34
2019-07-30 15:00:00 26.7 6 Oeste 23 Oeste 0 -- -- 37
2019-07-30 14:00:00 25.5 10 Noroeste 27 Noroeste 0 -- -- 40
2019-07-30 13:00:00 24.1 10 Noroeste 27 Oeste 0 -- -- 44
2019-07-30 12:00:00 23 12 Noroeste 26 Noroeste 0 -- -- 47
2019-07-30 11:00:00 21.7 14 Noroeste 27 Noroeste 0 -- -- 51
2019-07-30 10:00:00 20.5 12 Oeste 32 Oeste 0 -- -- 56
2019-07-30 09:00:00 19.8 9 Oeste 23 Oeste 0 -- -- 58
2019-07-30 08:00:00 18.8 6 Oeste 18 Sudoeste 0 -- -- 63
2019-07-30 07:00:00 17.6 5 Sudoeste 21 Oeste 0 -- -- 68
2019-07-30 06:00:00 18.2 5 Sudoeste 14 Oeste 0 -- -- 66
2019-07-30 05:00:00 19.3 3 Sudoeste 15 Sudoeste 0 -- -- 63
2019-07-30 04:00:00 20.3 6 Oeste 23 Oeste 0 -- -- 61
2019-07-30 03:00:00 21.2 10 Oeste 26 Oeste 0 -- -- 59
2019-07-30 02:00:00 23.3 15 Oeste 35 Oeste 0 -- -- 54
2019-07-30 01:00:00 24.6 5 Este 13 Sudeste 0 -- -- 39
2019-07-30 00:00:00 24.8 3 Norte 12 Sur 0 -- -- 39
2019-07-29 23:00:00 25.4 2 Noroeste 18 Este 0 -- -- 44
2019-07-29 22:00:00 26.6 9 Este 19 Este 0 -- -- 48
2019-07-29 21:00:00 28.6 10 Sudeste 21 Sudeste 0 -- -- 46
2019-07-29 20:00:00 30.4 12 Sudeste 27 Este 0 -- -- 41
2019-07-29 19:00:00 31.5 12 Sudeste 22 Sudeste 0 -- -- 40
2019-07-29 18:00:00 30.6 13 Este 26 Sudeste 0 -- -- 43
2019-07-29 17:00:00 32.1 14 Este 31 Sudeste 0 -- -- 38
2019-07-29 16:00:00 32.7 11 Nordeste 26 Nordeste 0 -- -- 30
2019-07-29 15:00:00 32.3 8 Nordeste 21 Nordeste 0 -- -- 27
2019-07-29 14:00:00 31.2 7 Nordeste 19 Noroeste 0 -- -- 28
2019-07-29 13:00:00 30.4 5 Norte 18 Nordeste 0 -- -- 31
2019-07-29 12:00:00 28.5 4 Nordeste 12 Nordeste 0 -- -- 34
2019-07-29 11:00:00 26 2 Noroeste 8 Este 0 -- -- 39
2019-07-29 10:00:00 22.2 0 Calma -- -- 0 -- -- 49
2019-07-29 09:00:00 17.8 0 Calma -- -- 0 -- -- 66
2019-07-29 08:00:00 12.7 0 Calma -- -- 0 -- -- 82
2019-07-29 07:00:00 10.9 0 Calma -- -- 0 -- -- 86
2019-07-29 06:00:00 11.3 0 Calma -- -- 0 -- -- 84
2019-07-29 05:00:00 11.9 0 Calma -- -- 0 -- -- 82
2019-07-29 04:00:00 12.6 0 Calma -- -- 0 -- -- 79
2019-07-29 03:00:00 13.3 0 Calma 6 Sur 0 -- -- 76
2019-07-29 02:00:00 14.2 0 Calma 4 Oeste 0 -- -- 72
2019-07-29 01:00:00 15.2 3 Oeste 5 Sudoeste 0 -- -- 67
2019-07-29 00:00:00 16.9 0 Calma 5 Sudoeste 0 -- -- 59
2019-07-28 23:00:00 19.4 0 Calma 7 Sudoeste 0 -- -- 51
2019-07-28 22:00:00 22 3 Sudoeste 8 Sudoeste 0 -- -- 44
2019-07-28 21:00:00 25.9 4 Nordeste 13 Norte 0 -- -- 33
2019-07-28 20:00:00 27.2 6 Norte 24 Noroeste 0 -- -- 32
2019-07-28 19:00:00 27.7 9 Noroeste 24 Oeste 0 -- -- 31
2019-07-28 18:00:00 27.4 11 Noroeste 25 Noroeste 0 -- -- 31
2019-07-28 17:00:00 27 13 Noroeste 29 Noroeste 0 -- -- 33
2019-07-28 16:00:00 26.3 10 Noroeste 33 Oeste 0 -- -- 35
2019-07-28 15:00:00 25.4 13 Noroeste 34 Oeste 0 -- -- 37
2019-07-28 14:00:00 23.9 20 Noroeste 33 Oeste 0 -- -- 39
2019-07-28 13:00:00 23.1 16 Oeste 30 Noroeste 0 -- -- 44
2019-07-28 12:00:00 21.3 16 Noroeste 43 Oeste 0 -- -- 49
2019-07-28 11:00:00 20.1 19 Noroeste 41 Oeste 0 -- -- 53
2019-07-28 10:00:00 18.6 23 Noroeste 47 Oeste 0 -- -- 60
2019-07-28 09:00:00 17.4 12 Noroeste 38 Oeste 0 -- -- 63
2019-07-28 08:00:00 16.4 20 Oeste 37 Oeste 0 -- -- 65
2019-07-28 07:00:00 15.2 9 Oeste 23 Oeste 0 -- -- 69
2019-07-28 06:00:00 15.6 5 Oeste 20 Oeste 0 -- -- 68
2019-07-28 05:00:00 15.9 6 Sudoeste 16 Sudoeste 0 -- -- 67
2019-07-28 04:00:00 16 5 Sudeste 21 Oeste 0 -- -- 67
2019-07-28 03:00:00 16.6 10 Oeste 26 Oeste 0 -- -- 65
2019-07-28 02:00:00 16.9 8 Oeste 32 Oeste 0 -- -- 65
2019-07-28 01:00:00 17.3 11 Oeste 39 Oeste 0 -- -- 65
2019-07-28 00:00:00 17.8 17 Oeste 39 Oeste 0 -- -- 62
2019-07-27 23:00:00 18.4 19 Oeste 43 Oeste 0 -- -- 63
2019-07-26 12:00:00 -- -- -- -- -- -- -- -- --
2019-07-26 11:00:00 24.7 4 Norte 15 Oeste 0 -- -- 62
2019-07-26 10:00:00 23.6 8 Noroeste 21 Noroeste 0 -- -- 68
2019-07-26 09:00:00 23.9 14 Noroeste 26 Oeste 0 -- -- 60
2019-07-26 08:00:00 20.3 0 Calma 12 Oeste 0 -- -- 62
2019-07-26 07:00:00 20.1 6 Oeste 9 Oeste 0 -- -- 57
2019-07-26 06:00:00 22.2 4 Oeste 12 Noroeste 0 -- -- 46
2019-07-26 05:00:00 23 3 Oeste 9 Sudoeste 0 -- -- 42
2019-07-26 04:00:00 24.1 4 Sur 10 Sur 0 -- -- 40
2019-07-26 03:00:00 24.4 5 Oeste 9 Oeste 0 -- -- 40
2019-07-26 02:00:00 26.5 6 Noroeste 11 Norte 0 -- -- 36
2019-07-26 01:00:00 26.6 4 Nordeste 13 Nordeste 0 -- -- 38
2019-07-26 00:00:00 27.8 3 Sudeste 12 Sudeste 0 -- -- 37
2019-07-25 23:00:00 27 6 Sur 14 Sudeste 0 -- -- 40
2019-07-25 22:00:00 28.1 3 Sur 13 Sudeste 0 -- -- 40
2019-07-25 21:00:00 29.6 10 Sudeste 21 Sudeste 0 -- -- 37
2019-07-25 20:00:00 30.6 6 Sudeste 18 Sudeste 0 -- -- 35
2019-07-25 19:00:00 31.6 2 Este 16 Sudeste 0 -- -- 37
2019-07-25 18:00:00 32.8 13 Este 32 Sudeste 0 -- -- 36
2019-07-25 17:00:00 34.4 17 Sudeste 41 Este 0 -- -- 34
2019-07-25 16:00:00 34.8 20 Sudeste 40 Sudeste 0 -- -- 34
2019-07-25 15:00:00 35.7 19 Sudeste 41 Sudeste 0 -- -- 32
2019-07-25 14:00:00 36.8 11 Sudeste 30 Sudeste 0 -- -- 22
2019-07-25 13:00:00 36.1 11 Sur 28 Este 0 -- -- 22
2019-07-25 12:00:00 35.6 10 Sudeste 27 Sur 0 -- -- 22
2019-07-25 11:00:00 32.8 4 Noroeste 12 Oeste 0 -- -- 34
2019-07-25 10:00:00 28.1 0 Calma -- -- 0 -- -- 46
2019-07-25 09:00:00 22.5 0 Calma 5 Sudoeste 0 -- -- 52
2019-07-25 08:00:00 18.2 3 Oeste 7 Oeste 0 -- -- 63
2019-07-25 07:00:00 18 0 Calma 8 Oeste 0 -- -- 60
2019-07-25 06:00:00 20.4 6 Oeste 11 Oeste 0 -- -- 54
2019-07-25 05:00:00 21.7 2 Sur 7 Sur 0 -- -- 44
2019-07-25 04:00:00 21.9 3 Sur 10 Sudoeste 0 -- -- 44
2019-07-25 03:00:00 22.5 3 Sur 8 Sudoeste 0 -- -- 42
2019-07-25 02:00:00 23 4 Sur 8 Sur 0 -- -- 40
2019-07-25 01:00:00 23.1 5 Sudoeste 13 Sudoeste 0 -- -- 46
2019-07-25 00:00:00 24.1 3 Sudoeste 12 Sudoeste 0 -- -- 44
2019-07-24 23:00:00 25.7 4 Sudoeste 11 Sudoeste 0 -- -- 44
2019-07-24 22:00:00 28.9 2 Oeste 21 Este 0 -- -- 39
2019-07-24 21:00:00 31.3 5 Nordeste 28 Sudeste 0 -- -- 35
2019-07-24 20:00:00 33 14 Este 32 Este 0 -- -- 32
2019-07-24 19:00:00 34.2 16 Sudeste 38 Este 0 -- -- 28
2019-07-24 18:00:00 35 17 Sudeste 40 Sudeste 0 -- -- 26
2019-07-24 17:00:00 36.4 17 Sudeste 36 Sudeste 0 -- -- 24
2019-07-24 16:00:00 37.2 15 Sudeste 33 Sudeste 0 -- -- 22
2019-07-24 15:00:00 37.4 15 Sudeste 34 Sudeste 0 -- -- 22
2019-07-24 14:00:00 37.2 15 Este 26 Sudeste 0 -- -- 22
2019-07-24 13:00:00 35.6 7 Norte 21 Nordeste 0 -- -- 26
2019-07-24 12:00:00 34.8 8 Este 15 Nordeste 0 -- -- 24
2019-07-24 11:00:00 32.3 0 Calma 4 Nordeste 0 -- -- 32
2019-07-24 10:00:00 27.2 0 Calma 5 Nordeste 0 -- -- 46
2019-07-24 09:00:00 22.9 0 Calma 5 Oeste 0 -- -- 57
2019-07-24 08:00:00 17.9 0 Calma 8 Oeste 0 -- -- 69
2019-07-24 07:00:00 17 2 Este 8 Oeste 0 -- -- 70
2019-07-24 06:00:00 17.9 3 Oeste 14 Oeste 0 -- -- 63
2019-07-24 05:00:00 18.1 4 Oeste 13 Oeste 0 -- -- 66
2019-07-24 04:00:00 19.3 5 Sudeste 14 Este 0 -- -- 57
2019-07-24 03:00:00 19 3 Oeste 5 Oeste 0 -- -- 60
2019-07-24 02:00:00 20 0 Calma 8 Oeste 0 -- -- 58
2019-07-24 01:00:00 21.5 0 Calma 6 Oeste 0 -- -- 54
2019-07-24 00:00:00 23.4 0 Calma 8 Sudoeste 0 -- -- 46
2019-07-23 23:00:00 25.4 3 Oeste 6 Oeste 0 -- -- 41
2019-07-23 22:00:00 28.5 4 Sudoeste 12 Este 0 -- -- 36
2019-07-23 21:00:00 31.8 4 Nordeste 24 Este 0 -- -- 29
2019-07-23 20:00:00 33.6 11 Sudeste 33 Este 0 -- -- 25
2019-07-23 19:00:00 34.8 17 Sudeste 35 Este 0 -- -- 26
2019-07-23 18:00:00 36 12 Sudeste 39 Este 0 -- -- 25
2019-07-23 17:00:00 36.3 21 Sudeste 43 Este 0 -- -- 23
2019-07-23 16:00:00 37.7 14 Sudeste 30 Este 0 -- -- 22
2019-07-23 15:00:00 38.2 15 Sudeste 31 Sudeste 0 -- -- 20
2019-07-23 14:00:00 37.5 14 Este 24 Sudeste 0 -- -- 19
2019-07-23 13:00:00 35.3 6 Norte 14 Nordeste 0 -- -- 24
2019-07-23 12:00:00 33.3 4 Norte 17 Nordeste 0 -- -- 27
2019-07-23 11:00:00 32.4 6 Nordeste 17 Nordeste 0 -- -- 30
2019-07-23 10:00:00 26.4 0 Calma -- -- 0 -- -- 46
2019-07-23 09:00:00 20.6 0 Calma -- -- 0 -- -- 53
2019-07-23 08:00:00 16.2 0 Calma -- -- 0 -- -- 68
2019-07-23 07:00:00 14.9 0 Calma -- -- 0 -- -- 78
2019-07-23 06:00:00 15.7 0 Calma -- -- 0 -- -- 72
2019-07-23 05:00:00 16.2 0 Calma -- -- 0 -- -- 73
2019-07-23 04:00:00 17.2 0 Calma -- -- 0 -- -- 64
2019-07-23 03:00:00 18.3 0 Calma -- -- 0 -- -- 62
2019-07-23 02:00:00 19.5 0 Calma 5 Sur 0 -- -- 55
2019-07-23 01:00:00 20.2 3 Oeste 6 Oeste 0 -- -- 59
2019-07-23 00:00:00 22.1 0 Calma 8 Sudoeste 0 -- -- 49
2019-07-22 23:00:00 24.8 3 Oeste 7 Sudoeste 0 -- -- 40
2019-07-22 22:00:00 28.9 3 Este 20 Sudeste 0 -- -- 29
2019-07-22 21:00:00 31.2 5 Sudeste 31 Este 0 -- -- 24
2019-07-22 20:00:00 32.9 14 Sudeste 30 Este 0 -- -- 24
2019-07-22 19:00:00 33.2 12 Este 30 Este 0 -- -- 24
2019-07-22 18:00:00 34.8 12 Sudeste 40 Sudeste 0 -- -- 29
2019-07-22 17:00:00 35.1 21 Sudeste 36 Sudeste 0 -- -- 27
2019-07-22 16:00:00 36.3 12 Sudeste 35 Sudeste 0 -- -- 28
2019-07-22 15:00:00 36.7 16 Sudeste 38 Este 0 -- -- 23
2019-07-22 14:00:00 36.7 17 Sudeste 34 Sudeste 0 -- -- 18
2019-07-22 13:00:00 36 14 Este 25 Este 0 -- -- 18
2019-07-22 12:00:00 33.3 6 Nordeste 14 Este 0 -- -- 28
2019-07-22 11:00:00 31.4 0 Calma -- -- 0 -- -- 22
2019-07-22 10:00:00 26.3 0 Calma -- -- 0 -- -- 37
2019-07-22 09:00:00 21.2 0 Calma -- -- 0 -- -- 49
2019-07-22 08:00:00 17 0 Calma -- -- 0 -- -- 72
2019-07-22 07:00:00 15.9 0 Calma 3 Oeste 0 -- -- 71
2019-07-22 06:00:00 17.1 0 Calma 4 Sudoeste 0 -- -- 61
2019-07-22 05:00:00 17.8 0 Calma 6 Oeste 0 -- -- 61
2019-07-22 04:00:00 19.3 0 Calma 9 Oeste 0 -- -- 53
2019-07-22 03:00:00 20.1 4 Oeste 9 Oeste 0 -- -- 46
2019-07-22 02:00:00 21.3 3 Sudoeste 7 Sudoeste 0 -- -- 38
2019-07-22 01:00:00 22 2 Sur 11 Sudoeste 0 -- -- 43
2019-07-22 00:00:00 23.5 3 Sudoeste 13 Sur 0 -- -- 35